< < Back
Terminal Aerodrome Forecast


Current Version              Previous Versions:   1  2  3  4  5  6  7  8  9  

Terminal Aerodrome Forecast

661
FTUS42 KTAE 222332
TAFVLD
TAF
KVLD 222332Z 2300/2324 VRB03KT P6SM SCT250
     FM231800 18006KT P6SM SCT250=

Latest METAR

049
SAUS70 KWBC 240300 RRK
MTRVLD
METAR KVLD 240253Z AUTO 00000KT 10SM CLR 25/23 A3001 RMK AO2 LTG DSNT NE
AND E SLP169 T02500228 51015


USA.gov is the U.S. government's official web portal to all federal, state and local government web resources and services.